Time;durP1;ratioP1;P1;durP2;ratioP2;P2;SDS_P1;SDS_P2;PMS_P1;PMS_P2;Temp;Humidity;BMP_temperature;BMP_pressure;BME280_temperature;BME280_humidity;BME280_pressure;Samples;Min_cycle;Max_cycle;Signal;HPM_P1;HPM_P2
2023/04/16 00:02:17;;;;;;;97.85;36.35;;;9.20;99.90;;;;;;4794000;29;20188;-77
2023/04/16 00:04:43;;;;;;;108.32;37.65;;;9.20;99.90;;;;;;4767658;29;20283;-77
2023/04/16 00:07:09;;;;;;;103.05;37.70;;;9.20;99.90;;;;;;4779459;29;20671;-80
2023/04/16 00:09:35;;;;;;;105.85;37.42;;;9.20;99.90;;;;;;4779343;29;20239;-78
2023/04/16 00:12:01;;;;;;;94.90;36.72;;;9.20;99.90;;;;;;4778503;29;20200;-77
2023/04/16 00:14:28;;;;;;;97.50;37.97;;;9.20;99.90;;;;;;4779570;29;20195;-81
2023/04/16 00:16:53;;;;;;;107.95;38.33;;;9.20;99.90;;;;;;4777317;29;20617;-78
2023/04/16 00:19:19;;;;;;;107.53;38.33;;;9.20;99.90;;;;;;4795396;29;20234;-78
2023/04/16 00:21:45;;;;;;;97.25;36.92;;;9.20;99.90;;;;;;4793185;29;20252;-83
2023/04/16 00:24:11;;;;;;;101.18;37.33;;;9.20;99.90;;;;;;4794123;29;20649;-77
2023/04/16 00:26:36;;;;;;;107.43;38.90;;;9.10;99.90;;;;;;4776745;29;20205;-77
2023/04/16 00:29:02;;;;;;;101.75;39.35;;;9.10;99.90;;;;;;4793038;29;20295;-83
2023/04/16 00:31:29;;;;;;;105.60;40.20;;;9.20;99.90;;;;;;4780648;29;20669;-78
2023/04/16 00:33:56;;;;;;;104.90;40.67;;;9.10;99.90;;;;;;4782440;29;20203;-81
2023/04/16 00:36:28;;;;;;;104.07;41.15;;;9.10;99.90;;;;;;4777972;29;20207;-79
2023/04/16 00:38:55;;;;;;;108.10;40.63;;;9.10;99.90;;;;;;4779230;29;20234;-79
2023/04/16 00:41:25;;;;;;;106.20;42.15;;;9.10;99.90;;;;;;4780582;29;20199;-77
2023/04/16 00:43:51;;;;;;;98.72;41.47;;;9.10;99.90;;;;;;4792905;29;20939;-82
2023/04/16 00:46:23;;;;;;;100.40;43.08;;;9.10;99.90;;;;;;4792104;29;20604;-77
2023/04/16 00:48:50;;;;;;;102.35;44.63;;;9.00;99.90;;;;;;4793629;29;20658;-78
2023/04/16 00:51:20;;;;;;;101.22;43.97;;;9.10;99.90;;;;;;4789854;29;20283;-77
2023/04/16 00:53:46;;;;;;;104.40;43.50;;;9.10;99.90;;;;;;4779956;29;20272;-79
2023/04/16 00:56:12;;;;;;;97.72;44.08;;;9.00;99.90;;;;;;4782011;29;20197;-77
2023/04/16 00:58:38;;;;;;;111.10;44.65;;;9.00;99.90;;;;;;4781147;29;20247;-81
2023/04/16 01:01:05;;;;;;;111.07;44.92;;;9.10;99.90;;;;;;4789393;29;20675;-79
2023/04/16 01:03:44;;;;;;;105.47;43.63;;;9.00;99.90;;;;;;4792912;29;20196;-79
2023/04/16 01:06:10;;;;;;;111.07;44.72;;;9.10;99.90;;;;;;4791170;29;20211;-78
2023/04/16 01:08:36;;;;;;;103.85;41.78;;;9.00;99.90;;;;;;4791580;29;20318;-78
2023/04/16 01:11:02;;;;;;;109.80;43.05;;;9.00;99.90;;;;;;4779508;29;20215;-82
2023/04/16 01:13:29;;;;;;;122.00;43.90;;;9.00;99.90;;;;;;4792648;29;20192;-78
2023/04/16 01:15:55;;;;;;;99.57;41.60;;;9.00;99.90;;;;;;4792805;29;20207;-77
2023/04/16 01:18:22;;;;;;;108.28;43.42;;;9.00;99.90;;;;;;4791754;29;20249;-81
2023/04/16 01:20:48;;;;;;;102.88;43.17;;;9.00;99.90;;;;;;4795118;29;20196;-77
2023/04/16 01:23:15;;;;;;;114.03;44.92;;;8.90;99.90;;;;;;4776270;29;20218;-77
2023/04/16 01:25:40;;;;;;;103.47;41.80;;;9.00;99.90;;;;;;4780297;29;20206;-78
2023/04/16 01:28:07;;;;;;;99.35;40.65;;;9.00;99.90;;;;;;4790580;29;20571;-78
2023/04/16 01:30:32;;;;;;;107.45;40.42;;;8.90;99.90;;;;;;4774644;29;20207;-78
2023/04/16 01:33:25;;;;;;;113.78;41.40;;;8.90;99.90;;;;;;4779236;29;20234;-77
2023/04/16 01:35:51;;;;;;;104.78;40.45;;;8.90;99.90;;;;;;4776150;29;21899;-81
2023/04/16 01:38:17;;;;;;;102.13;40.83;;;8.90;99.90;;;;;;4791269;29;20216;-83
2023/04/16 01:40:43;;;;;;;96.47;40.53;;;8.90;99.90;;;;;;4786396;29;21930;-77
2023/04/16 01:43:08;;;;;;;100.25;41.65;;;8.90;99.90;;;;;;4779589;29;20192;-79
2023/04/16 01:45:34;;;;;;;105.82;40.50;;;8.90;99.90;;;;;;4776670;29;20227;-82
2023/04/16 01:48:01;;;;;;;96.15;38.80;;;8.90;99.90;;;;;;4776054;29;20450;-77
2023/04/16 01:50:27;;;;;;;101.38;41.40;;;8.90;99.90;;;;;;4788843;29;20192;-77
2023/04/16 01:52:53;;;;;;;91.45;38.78;;;8.90;99.90;;;;;;4760981;29;20204;-83
2023/04/16 01:55:19;;;;;;;102.90;41.67;;;8.90;99.90;;;;;;4761611;29;20208;-82
2023/04/16 01:57:45;;;;;;;109.10;41.08;;;8.90;99.90;;;;;;4762174;29;20300;-77
2023/04/16 02:00:12;;;;;;;98.75;39.50;;;8.90;99.90;;;;;;4772996;29;20666;-82
2023/04/16 02:02:48;;;;;;;108.32;41.95;;;8.90;99.90;;;;;;4771081;29;20629;-77
2023/04/16 02:05:21;;;;;;;117.22;41.53;;;8.90;99.90;;;;;;4775445;29;20677;-76
2023/04/16 02:07:47;;;;;;;117.97;44.33;;;8.90;99.90;;;;;;4776024;29;20232;-80
2023/04/16 02:10:13;;;;;;;128.18;43.88;;;8.90;99.90;;;;;;4769920;29;20633;-77
2023/04/16 02:12:39;;;;;;;130.35;43.65;;;8.90;99.90;;;;;;4777151;29;20193;-76
2023/04/16 02:15:06;;;;;;;138.57;45.78;;;8.90;99.90;;;;;;4760665;29;20197;-78
2023/04/16 02:17:31;;;;;;;130.65;45.42;;;8.90;99.90;;;;;;4757609;29;20189;-77
2023/04/16 02:20:08;;;;;;;136.50;46.35;;;8.90;99.90;;;;;;4779008;29;20192;-76
2023/04/16 02:22:37;;;;;;;129.63;47.22;;;9.00;99.90;;;;;;4768343;29;20202;-78
2023/04/16 02:25:03;;;;;;;138.65;49.10;;;9.00;99.90;;;;;;4772310;29;20284;-81
2023/04/16 02:27:29;;;;;;;134.23;49.33;;;9.00;99.90;;;;;;4774144;29;20206;-78
2023/04/16 02:30:04;;;;;;;142.80;49.17;;;9.00;99.90;;;;;;4771150;29;20726;-77
2023/04/16 02:32:32;;;;;;;147.80;49.03;;;9.00;99.90;;;;;;4771876;29;20685;-78
2023/04/16 02:34:58;;;;;;;141.95;48.72;;;9.10;99.90;;;;;;4773672;29;20193;-77
2023/04/16 02:37:24;;;;;;;133.45;48.83;;;9.00;99.90;;;;;;4774036;29;20361;-78
2023/04/16 02:39:52;;;;;;;140.70;48.03;;;9.10;99.90;;;;;;4761164;29;20236;-77
2023/04/16 02:42:18;;;;;;;131.38;45.47;;;9.00;99.90;;;;;;4773150;29;20628;-77
2023/04/16 02:44:44;;;;;;;134.05;45.85;;;9.10;99.90;;;;;;4775515;29;20233;-82
2023/04/16 02:47:10;;;;;;;126.00;43.92;;;9.10;99.90;;;;;;4773567;29;20205;-77
2023/04/16 02:49:36;;;;;;;133.05;45.22;;;9.00;99.90;;;;;;4775818;29;20547;-77
2023/04/16 02:52:02;;;;;;;133.20;45.53;;;9.00;99.90;;;;;;4773422;29;20538;-77
2023/04/16 02:54:27;;;;;;;131.25;44.38;;;9.00;99.90;;;;;;4772891;29;20200;-77
2023/04/16 02:56:53;;;;;;;137.32;45.63;;;9.00;99.90;;;;;;4786355;29;20282;-79
2023/04/16 02:59:19;;;;;;;137.23;44.75;;;9.00;99.90;;;;;;4788485;29;20818;-78
2023/04/16 03:01:45;;;;;;;131.68;43.80;;;9.10;99.90;;;;;;4778698;29;20187;-77
2023/04/16 03:04:11;;;;;;;129.80;43.45;;;9.00;99.90;;;;;;4777727;29;20290;-77
2023/04/16 03:06:36;;;;;;;118.72;41.33;;;9.00;99.90;;;;;;4792277;29;20752;-82
2023/04/16 03:09:02;;;;;;;123.55;42.08;;;9.00;99.90;;;;;;4765569;29;20211;-77
2023/04/16 03:11:28;;;;;;;120.55;40.85;;;9.00;99.90;;;;;;4793354;29;20216;-79
2023/04/16 03:13:54;;;;;;;123.05;40.78;;;9.00;99.90;;;;;;4783417;29;20188;-81
2023/04/16 03:16:20;;;;;;;111.28;39.60;;;9.00;99.90;;;;;;4778999;29;20858;-83
2023/04/16 03:18:46;;;;;;;112.88;41.58;;;9.00;99.90;;;;;;4789432;29;20653;-80
2023/04/16 03:21:11;;;;;;;126.47;39.78;;;9.00;99.90;;;;;;4791608;29;20204;-77
2023/04/16 03:23:37;;;;;;;123.38;41.40;;;9.00;99.90;;;;;;4792963;29;20680;-78
2023/04/16 03:26:03;;;;;;;114.70;41.28;;;9.00;99.90;;;;;;4782395;29;20200;-79
2023/04/16 03:28:29;;;;;;;123.95;41.15;;;9.00;99.90;;;;;;4781222;29;20208;-80
2023/04/16 03:30:55;;;;;;;116.28;40.28;;;9.00;99.90;;;;;;4790370;29;20207;-77
2023/04/16 03:33:21;;;;;;;134.32;40.75;;;9.00;99.90;;;;;;4792717;29;20199;-82
2023/04/16 03:35:54;;;;;;;124.07;38.97;;;9.00;99.90;;;;;;4795498;29;20204;-78
2023/04/16 03:38:21;;;;;;;110.68;37.67;;;9.00;99.90;;;;;;4771931;29;20685;-78
2023/04/16 03:40:47;;;;;;;118.40;36.65;;;9.00;99.90;;;;;;4795152;29;20195;-80
2023/04/16 03:43:14;;;;;;;137.10;39.20;;;9.00;99.90;;;;;;4784612;29;20192;-78
2023/04/16 03:45:44;;;;;;;124.72;38.00;;;9.00;99.90;;;;;;4781881;29;20791;-77
2023/04/16 03:48:11;;;;;;;126.18;39.28;;;9.00;99.90;;;;;;4798346;29;20200;-78
2023/04/16 03:50:36;;;;;;;129.40;36.20;;;9.00;99.90;;;;;;4785031;29;20196;-81
2023/04/16 03:53:04;;;;;;;123.35;38.28;;;9.00;99.90;;;;;;4767179;29;20283;-79
2023/04/16 03:55:31;;;;;;;109.53;36.72;;;9.00;99.90;;;;;;4798192;29;20196;-81
2023/04/16 03:58:01;;;;;;;119.22;38.97;;;9.00;99.90;;;;;;4783497;29;20247;-81
2023/04/16 04:00:28;;;;;;;99.78;35.90;;;9.00;99.90;;;;;;4781620;29;20251;-78
2023/04/16 04:03:01;;;;;;;108.30;36.53;;;8.90;99.90;;;;;;4769941;29;20222;-78
2023/04/16 04:05:27;;;;;;;125.38;36.33;;;8.90;99.90;;;;;;4784383;29;20835;-86
2023/04/16 04:07:53;;;;;;;110.18;36.08;;;8.90;99.90;;;;;;4785749;29;20656;-79
2023/04/16 04:10:18;;;;;;;104.22;36.42;;;8.90;99.90;;;;;;4780931;29;20200;-81
2023/04/16 04:12:44;;;;;;;125.82;36.83;;;8.90;99.90;;;;;;4785061;29;20200;-76
2023/04/16 04:15:11;;;;;;;119.55;35.95;;;8.90;99.90;;;;;;4792628;29;20684;-80
2023/04/16 04:17:37;;;;;;;111.47;35.58;;;8.90;99.90;;;;;;4797056;29;20191;-80
2023/04/16 04:20:03;;;;;;;131.50;37.72;;;8.90;99.90;;;;;;4796282;29;20720;-81
2023/04/16 04:22:30;;;;;;;114.35;36.30;;;8.90;99.90;;;;;;4784457;29;20253;-77
2023/04/16 04:24:56;;;;;;;101.82;36.83;;;8.90;99.90;;;;;;4766359;29;20201;-84
2023/04/16 04:27:22;;;;;;;112.85;36.33;;;8.90;99.90;;;;;;4782856;29;20195;-85
2023/04/16 04:29:47;;;;;;;105.40;36.72;;;8.90;99.90;;;;;;4782735;29;20196;-79
2023/04/16 04:32:13;;;;;;;114.18;38.20;;;8.90;99.90;;;;;;4795235;29;20649;-77
2023/04/16 04:34:39;;;;;;;139.23;38.42;;;8.90;99.90;;;;;;4800733;29;20245;-80
2023/04/16 04:37:06;;;;;;;113.57;37.15;;;8.90;99.90;;;;;;4784837;29;20203;-79
2023/04/16 04:39:32;;;;;;;122.30;38.25;;;8.90;99.90;;;;;;4796776;29;20230;-83
2023/04/16 04:41:58;;;;;;;117.80;37.35;;;8.90;99.90;;;;;;4780376;29;20203;-79
2023/04/16 04:44:24;;;;;;;115.43;37.67;;;8.90;99.90;;;;;;4783049;29;20196;-82
2023/04/16 04:46:50;;;;;;;122.07;38.33;;;8.90;99.90;;;;;;4796336;29;20253;-78
2023/04/16 04:49:18;;;;;;;127.63;38.17;;;8.90;99.90;;;;;;4782065;29;20203;-82
2023/04/16 04:51:44;;;;;;;110.57;37.08;;;8.90;99.90;;;;;;4769858;29;20574;-80
2023/04/16 04:54:09;;;;;;;116.95;38.08;;;8.90;99.90;;;;;;4793841;29;20211;-81
2023/04/16 04:56:35;;;;;;;119.30;37.65;;;8.90;99.90;;;;;;4794144;29;20193;-79
2023/04/16 04:59:01;;;;;;;112.20;36.47;;;8.90;99.90;;;;;;4796047;29;20230;-85
2023/04/16 05:01:27;;;;;;;108.65;35.33;;;8.90;99.90;;;;;;4781261;29;21185;-83
2023/04/16 05:03:52;;;;;;;116.38;35.78;;;8.90;99.90;;;;;;4795489;29;20210;-78
2023/04/16 05:06:18;;;;;;;107.20;35.05;;;8.90;99.90;;;;;;4791626;29;20199;-78
2023/04/16 05:08:44;;;;;;;120.93;35.38;;;8.90;99.90;;;;;;4792859;29;20280;-83
2023/04/16 05:11:09;;;;;;;119.97;34.92;;;8.90;99.90;;;;;;4795813;29;20668;-76
2023/04/16 05:13:35;;;;;;;107.03;34.75;;;8.90;99.90;;;;;;4796236;29;20204;-80
2023/04/16 05:16:01;;;;;;;105.82;34.70;;;8.90;99.90;;;;;;4798039;29;20204;-82
2023/04/16 05:18:27;;;;;;;118.72;34.20;;;8.90;99.90;;;;;;4800450;29;20288;-81
2023/04/16 05:20:52;;;;;;;114.25;36.50;;;8.90;99.90;;;;;;4798440;29;20192;-81
2023/04/16 05:23:18;;;;;;;126.25;36.17;;;8.90;99.90;;;;;;4791917;29;20185;-79
2023/04/16 05:25:44;;;;;;;122.90;35.75;;;8.90;99.90;;;;;;4795220;29;20660;-78
2023/04/16 05:28:10;;;;;;;134.90;36.40;;;8.90;99.90;;;;;;4795530;29;20207;-79
2023/04/16 05:30:35;;;;;;;121.97;36.17;;;8.90;99.90;;;;;;4774265;29;20310;-86
2023/04/16 05:33:01;;;;;;;132.27;34.60;;;9.00;99.90;;;;;;4761403;29;20289;-78
2023/04/16 05:35:27;;;;;;;114.05;35.28;;;8.90;99.90;;;;;;4760114;29;20228;-80
2023/04/16 05:37:52;;;;;;;108.22;34.60;;;8.90;99.90;;;;;;4786944;29;20321;-79
2023/04/16 05:40:18;;;;;;;106.05;36.22;;;8.90;99.90;;;;;;4787474;29;20196;-80
2023/04/16 05:42:44;;;;;;;97.65;36.28;;;9.00;99.90;;;;;;4787034;29;20192;-80
2023/04/16 05:45:10;;;;;;;96.93;33.05;;;9.00;99.90;;;;;;4789626;29;20666;-79
2023/04/16 05:47:35;;;;;;;81.78;32.88;;;9.00;99.90;;;;;;4777505;29;20279;-81
2023/04/16 05:50:01;;;;;;;103.70;32.35;;;9.00;99.90;;;;;;4802962;29;20194;-79
2023/04/16 05:52:27;;;;;;;87.10;30.88;;;9.10;99.90;;;;;;4778744;29;20572;-77
2023/04/16 05:54:53;;;;;;;89.13;31.42;;;9.10;99.90;;;;;;4788290;30;20341;-78
2023/04/16 05:57:18;;;;;;;96.32;31.08;;;9.10;99.90;;;;;;4788583;30;20236;-77
2023/04/16 05:59:44;;;;;;;98.72;31.10;;;9.10;99.90;;;;;;4795292;29;20223;-81
2023/04/16 06:02:10;;;;;;;91.35;31.58;;;9.10;99.90;;;;;;4806330;29;20184;-78
2023/04/16 06:04:36;;;;;;;91.60;30.08;;;9.10;99.90;;;;;;4775045;29;20278;-76
2023/04/16 06:07:02;;;;;;;93.50;31.15;;;9.20;99.90;;;;;;4807054;29;20196;-76
2023/04/16 06:09:28;;;;;;;104.20;32.00;;;9.20;99.90;;;;;;4790231;29;20200;-76
2023/04/16 06:11:54;;;;;;;100.88;32.38;;;9.20;99.90;;;;;;4806796;29;20200;-76
2023/04/16 06:14:20;;;;;;;101.40;33.03;;;9.30;99.90;;;;;;4792604;29;20203;-77
2023/04/16 06:16:46;;;;;;;105.00;29.55;;;9.30;99.90;;;;;;4790191;29;20234;-78
2023/04/16 06:19:11;;;;;;;100.72;31.25;;;9.30;99.90;;;;;;4775537;29;20231;-76
2023/04/16 06:21:37;;;;;;;86.47;30.73;;;9.40;99.90;;;;;;4789779;29;20245;-75
2023/04/16 06:24:03;;;;;;;108.82;31.23;;;9.40;99.90;;;;;;4805456;29;20283;-78
2023/04/16 06:26:29;;;;;;;107.68;31.45;;;9.40;99.90;;;;;;4806244;29;20184;-80
2023/04/16 06:28:54;;;;;;;102.95;31.95;;;9.40;99.90;;;;;;4806389;29;20202;-81
2023/04/16 06:31:20;;;;;;;99.22;30.75;;;9.50;99.90;;;;;;4790175;29;20253;-79
2023/04/16 06:33:46;;;;;;;109.72;32.28;;;9.50;99.90;;;;;;4803506;29;20223;-79
2023/04/16 06:36:12;;;;;;;101.93;31.33;;;9.50;99.90;;;;;;4800417;29;20214;-77
2023/04/16 06:38:37;;;;;;;92.43;30.45;;;9.60;99.90;;;;;;4772078;30;20311;-80
2023/04/16 06:41:03;;;;;;;94.38;30.17;;;9.60;99.90;;;;;;4797712;29;20649;-76
2023/04/16 06:43:31;;;;;;;95.15;30.58;;;9.70;99.90;;;;;;4805923;29;20184;-80
2023/04/16 06:45:57;;;;;;;94.35;28.77;;;9.80;99.90;;;;;;4806293;29;20229;-81
2023/04/16 06:48:22;;;;;;;85.30;28.15;;;9.80;99.90;;;;;;4806194;29;20212;-80
2023/04/16 06:50:48;;;;;;;88.13;28.52;;;9.90;99.90;;;;;;4806640;29;20271;-78
2023/04/16 06:53:14;;;;;;;85.07;28.92;;;9.90;99.90;;;;;;4806167;29;20645;-77
2023/04/16 06:55:40;;;;;;;81.35;27.02;;;10.00;99.90;;;;;;4805597;29;20188;-77
2023/04/16 06:58:06;;;;;;;91.78;28.88;;;10.00;99.90;;;;;;4805603;29;20302;-78
2023/04/16 07:00:31;;;;;;;85.18;27.75;;;10.00;99.90;;;;;;4805844;29;20728;-77
2023/04/16 07:02:59;;;;;;;90.80;27.35;;;10.10;99.90;;;;;;4785873;29;20714;-77
2023/04/16 07:05:25;;;;;;;89.60;28.35;;;10.10;99.90;;;;;;4804946;29;20204;-77
2023/04/16 07:07:51;;;;;;;74.13;28.10;;;10.20;99.90;;;;;;4789639;29;20616;-78
2023/04/16 07:10:17;;;;;;;71.95;27.27;;;10.20;99.90;;;;;;4805967;29;20214;-78
2023/04/16 07:12:43;;;;;;;77.20;27.75;;;10.30;99.90;;;;;;4804923;29;20192;-78
2023/04/16 07:15:09;;;;;;;82.57;28.20;;;10.40;99.90;;;;;;4793075;29;20191;-77
2023/04/16 07:17:35;;;;;;;90.72;28.80;;;10.40;99.90;;;;;;4793135;29;20543;-77
2023/04/16 07:20:01;;;;;;;79.47;28.65;;;10.40;99.90;;;;;;4779959;29;20235;-77
2023/04/16 07:22:27;;;;;;;73.85;27.35;;;10.50;99.90;;;;;;4807834;29;20203;-81
2023/04/16 07:24:52;;;;;;;79.55;27.40;;;10.50;99.90;;;;;;4809047;29;20233;-77
2023/04/16 07:27:18;;;;;;;72.25;28.25;;;10.50;99.90;;;;;;4793304;29;20180;-77
2023/04/16 07:29:44;;;;;;;72.60;28.42;;;10.50;99.90;;;;;;4809398;29;20547;-77
2023/04/16 07:32:11;;;;;;;72.45;29.10;;;10.60;99.90;;;;;;4792579;29;20684;-77
2023/04/16 07:34:37;;;;;;;79.35;28.40;;;10.60;99.90;;;;;;4809074;29;20202;-78
2023/04/16 07:37:02;;;;;;;70.28;29.00;;;10.60;99.90;;;;;;4809290;29;20184;-81
2023/04/16 07:39:28;;;;;;;80.18;28.25;;;10.60;99.90;;;;;;4809212;29;20277;-77
2023/04/16 07:41:54;;;;;;;74.95;27.63;;;10.60;99.90;;;;;;4809013;29;20216;-77
2023/04/16 07:44:20;;;;;;;73.28;27.13;;;10.60;99.90;;;;;;4807435;29;20660;-81
2023/04/16 07:46:45;;;;;;;73.95;27.98;;;10.60;99.90;;;;;;4790787;29;20602;-81
2023/04/16 07:49:11;;;;;;;73.22;26.48;;;10.70;99.90;;;;;;4760342;30;20714;-79
2023/04/16 07:51:37;;;;;;;64.22;26.27;;;10.60;99.90;;;;;;4790779;30;20661;-82
2023/04/16 07:54:02;;;;;;;79.78;26.55;;;10.60;99.90;;;;;;4780516;29;20203;-78
2023/04/16 07:56:28;;;;;;;80.18;26.92;;;10.70;99.90;;;;;;4795465;29;20684;-79
2023/04/16 07:58:54;;;;;;;61.75;25.85;;;10.70;99.90;;;;;;4790539;29;20284;-77
2023/04/16 08:01:20;;;;;;;71.45;25.75;;;10.60;99.90;;;;;;4791347;30;20189;-78
2023/04/16 08:03:46;;;;;;;68.55;24.83;;;10.70;99.90;;;;;;4775809;30;20719;-78
2023/04/16 08:06:11;;;;;;;55.55;23.20;;;10.70;99.90;;;;;;4782366;29;20184;-78
2023/04/16 08:08:37;;;;;;;58.40;23.60;;;10.70;99.90;;;;;;4810156;29;20338;-78
2023/04/16 08:11:03;;;;;;;68.07;23.30;;;10.80;99.90;;;;;;4808169;29;20192;-79
2023/04/16 08:13:29;;;;;;;61.08;23.95;;;10.90;99.90;;;;;;4808790;29;20594;-80
2023/04/16 08:15:54;;;;;;;59.33;22.70;;;10.90;99.90;;;;;;4806428;29;20200;-78
2023/04/16 08:18:20;;;;;;;69.10;22.80;;;10.90;99.90;;;;;;4807478;29;20557;-79
2023/04/16 08:20:46;;;;;;;56.78;22.48;;;11.00;99.90;;;;;;4791493;29;20195;-79
2023/04/16 08:23:12;;;;;;;53.88;22.73;;;11.10;99.90;;;;;;4806827;29;20567;-79
2023/04/16 08:25:37;;;;;;;55.78;22.67;;;11.20;99.90;;;;;;4807987;29;20188;-86
2023/04/16 08:28:03;;;;;;;64.50;22.67;;;11.30;99.90;;;;;;4800513;29;20201;-80
2023/04/16 08:30:29;;;;;;;59.58;23.00;;;11.40;99.90;;;;;;4806674;29;20287;-79
2023/04/16 08:32:55;;;;;;;70.70;22.73;;;11.50;99.90;;;;;;4802474;29;20654;-78
2023/04/16 08:35:21;;;;;;;58.17;22.48;;;11.60;99.90;;;;;;4808338;29;20199;-84
2023/04/16 08:37:47;;;;;;;56.13;21.92;;;11.70;99.90;;;;;;4800885;29;20204;-78
2023/04/16 08:40:13;;;;;;;52.50;21.85;;;11.80;99.90;;;;;;4787201;29;20653;-77
2023/04/16 08:42:53;;;;;;;48.42;20.42;;;12.00;99.90;;;;;;4807775;29;20188;-78
2023/04/16 08:45:18;;;;;;;56.72;21.90;;;12.20;99.90;;;;;;4792244;29;20172;-78
2023/04/16 08:47:49;;;;;;;55.60;23.27;;;12.30;99.90;;;;;;4808118;29;20221;-86
2023/04/16 08:50:16;;;;;;;53.28;21.40;;;12.40;99.90;;;;;;4806680;29;20231;-78
2023/04/16 08:52:50;;;;;;;52.83;21.25;;;12.50;99.90;;;;;;4790214;29;20193;-78
2023/04/16 08:55:20;;;;;;;51.90;22.10;;;12.70;99.90;;;;;;4789714;29;20242;-78
2023/04/16 08:58:10;;;;;;;47.40;21.25;;;12.70;99.90;;;;;;4788649;29;20231;-78
2023/04/16 09:00:38;;;;;;;42.78;20.17;;;12.80;99.90;;;;;;4807178;29;20212;-78
2023/04/16 09:03:05;;;;;;;49.15;21.30;;;12.80;99.90;;;;;;4807132;29;20188;-77
2023/04/16 09:05:32;;;;;;;48.28;21.25;;;12.90;99.90;;;;;;4806822;29;20192;-78
2023/04/16 09:07:58;;;;;;;50.25;20.65;;;12.90;99.90;;;;;;4807570;29;20196;-77
2023/04/16 09:10:25;;;;;;;50.08;20.75;;;13.00;99.90;;;;;;4791646;29;20191;-77
2023/04/16 09:12:54;;;;;;;53.45;20.17;;;13.00;99.90;;;;;;4807091;29;20192;-78
2023/04/16 09:15:20;;;;;;;48.38;20.80;;;13.10;99.90;;;;;;4807531;29;20256;-78
2023/04/16 09:17:46;;;;;;;48.42;20.60;;;13.10;99.90;;;;;;4795731;29;20203;-78
2023/04/16 09:20:12;;;;;;;54.65;20.30;;;13.20;99.90;;;;;;4766187;30;20204;-77
2023/04/16 09:22:41;;;;;;;46.72;21.08;;;13.20;99.90;;;;;;4794601;29;20264;-79
2023/04/16 09:25:08;;;;;;;58.63;21.42;;;13.30;99.90;;;;;;4790990;29;20249;-79
2023/04/16 09:27:35;;;;;;;44.03;20.48;;;13.30;99.90;;;;;;4805566;29;20191;-77
2023/04/16 09:30:01;;;;;;;47.83;19.85;;;13.30;99.90;;;;;;4805666;29;20195;-81
2023/04/16 09:32:27;;;;;;;41.78;20.38;;;13.40;99.90;;;;;;4783807;29;20188;-79
2023/04/16 09:34:57;;;;;;;45.35;19.25;;;13.50;99.90;;;;;;4793007;29;20196;-79
2023/04/16 09:37:24;;;;;;;43.97;19.25;;;13.60;99.90;;;;;;4785413;29;20192;-79
2023/04/16 09:40:00;;;;;;;42.13;19.25;;;13.70;99.90;;;;;;4806350;29;20248;-79
2023/04/16 09:42:31;;;;;;;47.60;18.98;;;13.70;99.90;;;;;;4792887;29;20184;-80
2023/04/16 09:44:58;;;;;;;40.50;19.10;;;13.70;99.90;;;;;;4806880;29;20186;-78
2023/04/16 09:47:26;;;;;;;37.55;17.58;;;13.70;99.90;;;;;;4806528;29;20649;-79
2023/04/16 09:49:52;;;;;;;43.10;19.00;;;13.70;99.90;;;;;;4790288;29;20192;-77
2023/04/16 09:52:21;;;;;;;45.40;19.05;;;13.70;99.90;;;;;;4806401;29;20743;-78
2023/04/16 09:54:52;;;;;;;48.40;18.83;;;13.80;99.90;;;;;;4806853;29;20191;-78
2023/04/16 09:57:22;;;;;;;42.50;18.10;;;13.80;99.90;;;;;;4787671;29;20267;-78
2023/04/16 10:00:00;;;;;;;41.10;18.42;;;13.90;99.90;;;;;;4788484;30;20566;-79
2023/04/16 10:02:27;;;;;;;42.38;18.73;;;13.90;99.90;;;;;;4804572;29;20603;-83
2023/04/16 10:04:53;;;;;;;40.67;18.60;;;14.00;99.90;;;;;;4780115;29;20191;-79
2023/04/16 10:07:20;;;;;;;37.50;18.40;;;14.10;99.90;;;;;;4792969;29;20263;-78
2023/04/16 10:09:51;;;;;;;40.80;18.92;;;14.20;99.90;;;;;;4789826;29;20279;-78
2023/04/16 10:12:18;;;;;;;44.35;18.27;;;14.30;99.90;;;;;;4798198;29;20543;-79
2023/04/16 10:14:44;;;;;;;47.15;18.83;;;14.40;99.90;;;;;;4790276;29;20260;-79
2023/04/16 10:17:10;;;;;;;40.47;18.23;;;14.40;99.90;;;;;;4820688;29;20203;-78
2023/04/16 10:19:36;;;;;;;41.60;20.08;;;14.50;99.90;;;;;;4790259;29;20211;-79
2023/04/16 10:22:02;;;;;;;44.63;18.33;;;14.60;99.90;;;;;;4788294;29;20661;-79
2023/04/16 10:24:30;;;;;;;46.28;19.75;;;14.70;99.90;;;;;;4806420;29;20195;-85
2023/04/16 10:26:57;;;;;;;53.15;19.90;;;14.70;99.90;;;;;;4789722;29;20192;-79
2023/04/16 10:29:25;;;;;;;41.67;18.85;;;14.80;99.90;;;;;;4789820;29;20198;-78
2023/04/16 10:31:53;;;;;;;43.97;18.83;;;14.80;99.90;;;;;;4786407;29;20266;-79
2023/04/16 10:34:20;;;;;;;41.22;18.60;;;14.80;99.90;;;;;;4789202;29;20192;-78
2023/04/16 10:36:52;;;;;;;43.33;17.90;;;14.90;99.90;;;;;;4806243;29;20185;-78
2023/04/16 10:39:23;;;;;;;42.63;18.63;;;15.00;99.90;;;;;;4805380;29;20272;-78
2023/04/16 10:42:11;;;;;;;42.22;19.50;;;15.10;99.90;;;;;;4806172;29;20196;-79
2023/04/16 10:44:37;;;;;;;43.58;17.55;;;15.30;99.90;;;;;;4789268;29;20180;-78
2023/04/16 10:47:10;;;;;;;46.70;18.38;;;15.30;99.90;;;;;;4804709;29;20259;-79
2023/04/16 10:49:35;;;;;;;40.50;18.15;;;15.50;99.90;;;;;;4789993;29;20184;-78
2023/04/16 10:52:11;;;;;;;40.35;17.55;;;15.60;99.90;;;;;;4778273;29;20199;-78
2023/04/16 10:54:37;;;;;;;40.00;18.35;;;15.80;99.90;;;;;;4806012;29;20186;-78
2023/04/16 10:57:05;;;;;;;43.28;17.98;;;15.80;99.90;;;;;;4807219;29;20765;-79
2023/04/16 10:59:35;;;;;;;41.25;18.35;;;15.80;99.90;;;;;;4800359;29;20237;-78
2023/04/16 11:02:08;;;;;;;38.30;17.88;;;15.90;99.90;;;;;;4779370;29;20288;-78
2023/04/16 11:04:39;;;;;;;42.30;18.70;;;16.00;99.90;;;;;;4794143;29;20181;-78
2023/04/16 11:07:13;;;;;;;35.35;17.85;;;16.00;99.90;;;;;;4803547;29;20192;-79
2023/04/16 11:09:55;;;;;;;38.80;17.35;;;16.00;99.90;;;;;;4772811;29;20196;-77
2023/04/16 11:12:26;;;;;;;40.30;18.90;;;16.00;99.90;;;;;;4790725;29;20276;-80
2023/04/16 11:15:18;;;;;;;41.22;18.10;;;15.90;99.90;;;;;;4789482;29;20188;-79
2023/04/16 11:17:47;;;;;;;43.05;18.92;;;15.90;99.90;;;;;;4786574;29;20292;-79
2023/04/16 11:20:21;;;;;;;46.58;19.83;;;16.00;99.90;;;;;;4815291;29;20223;-78
2023/04/16 11:22:51;;;;;;;42.25;19.73;;;16.00;99.90;;;;;;4795841;29;20196;-78
2023/04/16 11:25:28;;;;;;;37.95;18.45;;;16.00;99.90;;;;;;4786448;29;20334;-79
2023/04/16 11:27:56;;;;;;;43.38;19.20;;;16.10;99.90;;;;;;4802212;29;20187;-79
2023/04/16 11:30:48;;;;;;;40.75;18.33;;;16.20;99.90;;;;;;4800004;29;20188;-78
2023/04/16 11:33:15;;;;;;;38.13;19.30;;;16.20;99.90;;;;;;4777134;29;20215;-78
2023/04/16 11:35:42;;;;;;;41.50;17.90;;;16.20;99.90;;;;;;4789250;29;20664;-79
2023/04/16 11:38:08;;;;;;;40.92;18.38;;;16.20;99.90;;;;;;4801126;29;20203;-79
2023/04/16 11:40:34;;;;;;;33.67;18.77;;;16.30;99.90;;;;;;4788981;29;20184;-79
2023/04/16 11:43:14;;;;;;;45.38;19.13;;;16.30;99.90;;;;;;4797376;29;20335;-79
2023/04/16 11:45:57;;;;;;;35.83;17.67;;;16.30;99.90;;;;;;4784150;29;20253;-79
2023/04/16 11:48:23;;;;;;;38.20;19.95;;;16.30;99.90;;;;;;4803200;29;20206;-79
2023/04/16 11:50:57;;;;;;;38.53;19.10;;;16.20;99.90;;;;;;4805544;29;20185;-79
2023/04/16 11:53:23;;;;;;;37.28;19.63;;;16.10;99.90;;;;;;4804845;29;20613;-79
2023/04/16 11:55:49;;;;;;;43.92;19.13;;;16.00;99.90;;;;;;4789519;29;20188;-80
2023/04/16 11:58:15;;;;;;;39.97;19.02;;;15.90;99.90;;;;;;4800439;29;20607;-79
2023/04/16 12:00:41;;;;;;;38.88;19.15;;;15.80;99.90;;;;;;4805276;29;20595;-79
2023/04/16 12:03:07;;;;;;;39.05;18.27;;;15.80;99.90;;;;;;4808367;29;20200;-79
2023/04/16 12:05:34;;;;;;;35.95;18.13;;;15.70;99.90;;;;;;4808631;29;20656;-79
2023/04/16 12:08:02;;;;;;;36.63;18.63;;;15.70;99.90;;;;;;4805624;29;20199;-80
2023/04/16 12:10:29;;;;;;;43.42;19.25;;;15.70;99.90;;;;;;4808256;29;20184;-79
2023/04/16 12:13:15;;;;;;;36.08;18.02;;;15.70;99.90;;;;;;4806271;29;20181;-79
2023/04/16 12:16:18;;;;;;;39.25;19.70;;;15.60;99.90;;;;;;4789008;29;20181;-79
2023/04/16 12:19:02;;;;;;;40.10;18.85;;;15.60;99.90;;;;;;4778703;30;20244;-78
2023/04/16 12:21:40;;;;;;;38.83;18.65;;;15.60;99.90;;;;;;4793107;29;20186;-78
2023/04/16 12:24:07;;;;;;;41.80;18.45;;;15.60;99.90;;;;;;4807116;29;20211;-78
2023/04/16 12:26:56;;;;;;;38.50;19.00;;;15.60;99.90;;;;;;4808052;29;20180;-78
2023/04/16 12:29:29;;;;;;;37.55;20.13;;;15.60;99.90;;;;;;4800183;29;20673;-79
2023/04/16 12:31:55;;;;;;;38.95;19.85;;;15.60;99.90;;;;;;4807647;29;20184;-83